createdAt,value
2023-01-04T00:02:12.033Z,70.30
2023-01-04T00:04:40.587Z,51.90
2023-01-04T00:07:09.205Z,58.90
2023-01-04T00:09:37.782Z,54.53
2023-01-04T00:12:07.061Z,62.30
2023-01-04T00:14:37.232Z,71.37
2023-01-04T00:17:05.833Z,61.73
2023-01-04T00:19:34.714Z,55.73
2023-01-04T00:22:03.290Z,123.97
2023-01-04T00:24:31.843Z,54.87
2023-01-04T00:27:00.529Z,48.53
2023-01-04T00:29:29.012Z,60.30
2023-01-04T00:31:58.956Z,91.73
2023-01-04T00:34:27.488Z,107.07
2023-01-04T00:36:56.135Z,68.63
2023-01-04T00:39:25.728Z,70.93
2023-01-04T00:42:05.100Z,53.47
2023-01-04T00:44:35.790Z,57.00
2023-01-04T00:47:06.247Z,73.40
2023-01-04T00:49:34.839Z,53.17
2023-01-04T00:52:04.738Z,55.67
2023-01-04T00:54:33.276Z,87.63
2023-01-04T00:57:02.068Z,59.70
2023-01-04T00:59:30.612Z,67.80
2023-01-04T01:01:59.383Z,130.33
2023-01-04T01:04:29.527Z,60.23
2023-01-04T01:06:58.440Z,43.00
2023-01-04T01:09:27.212Z,38.57
2023-01-04T01:11:56.359Z,56.60
2023-01-04T01:14:27.103Z,34.73
2023-01-04T01:16:58.536Z,57.93
2023-01-04T01:19:30.497Z,47.13
2023-01-04T01:22:00.256Z,106.60
2023-01-04T01:24:29.149Z,62.67
2023-01-04T01:26:58.151Z,125.80
2023-01-04T01:29:27.122Z,87.47
2023-01-04T01:31:55.651Z,115.17
2023-01-04T01:34:24.315Z,108.47
2023-01-04T01:36:54.309Z,102.40
2023-01-04T01:39:22.837Z,44.00
2023-01-04T01:41:51.422Z,100.27
2023-01-04T01:45:11.073Z,60.27
2023-01-04T01:47:46.082Z,98.30
2023-01-04T01:50:27.207Z,60.83
2023-01-04T01:53:01.504Z,51.30
2023-01-04T01:55:34.626Z,72.93
2023-01-04T01:58:06.365Z,38.97
2023-01-04T02:00:35.914Z,51.90
2023-01-04T02:03:17.227Z,105.50
2023-01-04T02:05:49.858Z,69.00
2023-01-04T02:08:25.608Z,79.77
2023-01-04T02:10:54.201Z,114.93
2023-01-04T02:13:49.563Z,42.10
2023-01-04T02:16:31.305Z,58.90
2023-01-04T02:19:17.673Z,53.13
2023-01-04T02:22:10.741Z,49.60
2023-01-04T02:25:08.741Z,88.37
2023-01-04T02:27:54.203Z,107.10
2023-01-04T02:31:04.611Z,140.20
2023-01-04T02:33:47.953Z,72.90
2023-01-04T02:36:31.776Z,145.97
2023-01-04T02:39:14.751Z,59.17
2023-01-04T02:41:52.691Z,142.43
2023-01-04T02:44:48.812Z,102.03
2023-01-04T02:51:49.983Z,95.77
2023-01-04T02:54:25.123Z,129.57
2023-01-04T02:57:14.482Z,128.00
2023-01-04T03:00:15.094Z,140.33
2023-01-04T03:03:21.522Z,141.20
2023-01-04T03:06:18.312Z,168.97
2023-01-04T03:09:01.878Z,70.07
2023-01-04T03:11:57.161Z,81.30
2023-01-04T03:14:34.725Z,136.37
2023-01-04T03:17:10.496Z,130.80
2023-01-04T03:19:54.025Z,75.20
2023-01-04T03:22:48.701Z,150.80
2023-01-04T03:25:44.885Z,113.60
2023-01-04T03:28:35.539Z,63.83
2023-01-04T03:31:31.160Z,93.90
2023-01-04T03:34:18.180Z,106.30
2023-01-04T03:37:10.027Z,107.80
2023-01-04T03:40:18.677Z,161.47
2023-01-04T03:43:22.172Z,104.87
2023-01-04T03:46:16.093Z,110.23
2023-01-04T03:48:55.308Z,140.90
2023-01-04T03:51:29.358Z,134.50
2023-01-04T03:54:06.570Z,102.93
2023-01-04T03:56:42.112Z,105.57
2023-01-04T03:59:14.237Z,127.33
2023-01-04T04:01:46.276Z,82.83
2023-01-04T04:04:32.421Z,205.03
2023-01-04T04:07:18.591Z,71.30
2023-01-04T04:09:47.280Z,81.73
2023-01-04T04:12:15.898Z,87.57
2023-01-04T04:14:45.849Z,98.83
2023-01-04T04:17:14.392Z,180.27
2023-01-04T04:19:43.020Z,136.40
2023-01-04T04:22:11.704Z,146.00
2023-01-04T04:24:40.264Z,110.70
2023-01-04T04:27:08.817Z,150.70
2023-01-04T04:29:37.450Z,58.30
2023-01-04T04:32:07.584Z,188.77
2023-01-04T04:34:36.594Z,89.13
2023-01-04T04:37:05.384Z,98.50
2023-01-04T04:39:34.452Z,106.20
2023-01-04T04:42:02.177Z,50.17
2023-01-04T04:49:22.547Z,98.57
2023-01-04T04:51:51.101Z,144.30
2023-01-04T04:54:22.995Z,100.97
2023-01-04T04:56:52.085Z,162.23
2023-01-04T04:59:20.616Z,108.90
2023-01-04T05:01:49.497Z,178.27
2023-01-04T05:04:19.606Z,111.83
2023-01-04T05:06:52.897Z,92.53
2023-01-04T05:09:21.725Z,77.70
2023-01-04T05:12:07.812Z,161.77
2023-01-04T05:14:39.146Z,117.80
2023-01-04T05:17:07.895Z,101.40
2023-01-04T05:19:36.500Z,67.90
2023-01-04T05:22:06.530Z,140.57
2023-01-04T05:24:35.036Z,133.10
2023-01-04T05:27:03.753Z,122.03
2023-01-04T05:29:49.880Z,103.97
2023-01-04T05:32:18.507Z,90.63
2023-01-04T05:34:47.145Z,159.90
2023-01-04T05:37:17.338Z,58.83
2023-01-04T05:39:45.941Z,58.93
2023-01-04T05:42:26.555Z,112.20
2023-01-04T05:44:56.799Z,147.40
2023-01-04T05:47:25.919Z,89.17
2023-01-04T05:49:54.684Z,102.70
2023-01-04T05:52:24.638Z,79.60
2023-01-04T05:54:53.343Z,105.63
2023-01-04T05:57:22.188Z,100.30
2023-01-04T05:59:50.915Z,83.67
2023-01-04T06:02:23.610Z,96.70
2023-01-04T06:04:58.467Z,73.17
2023-01-04T06:07:30.313Z,114.43
2023-01-04T06:09:59.482Z,72.47
2023-01-04T06:12:28.257Z,113.53
2023-01-04T06:14:56.879Z,171.70
2023-01-04T06:17:25.501Z,92.20
2023-01-04T06:19:54.073Z,97.07
2023-01-04T06:22:22.768Z,149.30
2023-01-04T06:24:52.819Z,119.30
2023-01-04T06:27:21.608Z,64.63
2023-01-04T06:29:50.123Z,150.53
2023-01-04T06:32:18.755Z,88.43
2023-01-04T06:34:47.386Z,120.40
2023-01-04T06:37:15.947Z,206.30
2023-01-04T06:39:44.531Z,72.10
2023-01-04T06:42:28.423Z,196.47
2023-01-04T06:44:57.021Z,220.70
2023-01-04T06:47:25.601Z,169.87
2023-01-04T06:49:54.399Z,124.33
2023-01-04T06:52:23.233Z,107.87
2023-01-04T06:54:51.874Z,162.20
2023-01-04T06:57:21.996Z,135.23
2023-01-04T06:59:50.560Z,198.83
2023-01-04T07:02:19.367Z,96.07
2023-01-04T07:04:48.099Z,99.80
2023-01-04T07:07:16.977Z,138.40
2023-01-04T07:09:45.554Z,78.97
2023-01-04T07:12:14.142Z,149.03
2023-01-04T07:14:44.047Z,110.67
2023-01-04T07:17:12.709Z,171.30
2023-01-04T07:19:41.329Z,109.33
2023-01-04T07:22:10.013Z,121.00
2023-01-04T07:24:38.909Z,121.50
2023-01-04T07:27:07.743Z,95.63
2023-01-04T07:29:36.552Z,70.67
2023-01-04T07:32:13.541Z,131.73
2023-01-04T07:34:43.325Z,138.20
2023-01-04T07:37:13.053Z,119.13
2023-01-04T07:40:56.101Z,123.33
2023-01-04T07:43:28.287Z,127.70
2023-01-04T07:45:57.584Z,89.17
2023-01-04T07:48:29.452Z,91.70
2023-01-04T07:50:58.041Z,95.90
2023-01-04T07:53:26.653Z,94.83
2023-01-04T07:55:59.911Z,83.60
2023-01-04T07:58:33.374Z,81.53
2023-01-04T08:01:08.936Z,73.27
2023-01-04T08:03:39.303Z,99.90
2023-01-04T08:06:10.659Z,78.30
2023-01-04T08:08:39.463Z,92.00
2023-01-04T08:11:14.379Z,81.83
2023-01-04T08:13:44.213Z,77.87
2023-01-04T08:16:22.533Z,79.57
2023-01-04T08:18:57.136Z,90.77
2023-01-04T08:21:27.157Z,88.63
2023-01-04T08:23:56.420Z,88.80
2023-01-04T08:26:25.313Z,82.93
2023-01-04T08:28:53.939Z,94.67
2023-01-04T08:31:26.432Z,125.77
2023-01-04T08:33:58.445Z,135.50
2023-01-04T08:36:29.674Z,184.13
2023-01-04T08:39:02.039Z,84.80
2023-01-04T08:41:57.338Z,94.03
2023-01-04T08:44:22.511Z,86.60
2023-01-04T08:46:54.592Z,92.33
2023-01-04T08:49:24.856Z,77.63
2023-01-04T08:51:53.675Z,84.60
2023-01-04T08:54:22.969Z,77.03
2023-01-04T08:56:51.750Z,74.07
2023-01-04T08:59:20.370Z,72.67
2023-01-04T09:01:49.032Z,73.97
2023-01-04T09:04:17.708Z,74.40
2023-01-04T09:06:47.708Z,69.60
2023-01-04T09:09:17.290Z,73.33
2023-01-04T09:11:45.882Z,69.53
2023-01-04T09:14:14.857Z,72.27
2023-01-04T09:16:43.608Z,64.60
2023-01-04T09:19:15.207Z,63.93
2023-01-04T09:21:51.775Z,62.37
2023-01-04T09:24:22.243Z,54.67
2023-01-04T09:26:50.995Z,55.50
2023-01-04T09:29:19.718Z,52.33
2023-01-04T09:31:49.382Z,48.90
2023-01-04T09:34:18.595Z,53.53
2023-01-04T09:36:50.501Z,52.33
2023-01-04T09:39:23.397Z,52.40
2023-01-04T09:41:59.192Z,47.40
2023-01-04T09:47:38.432Z,47.40
2023-01-04T09:50:15.834Z,40.83
2023-01-04T09:53:01.008Z,56.43
2023-01-04T09:55:40.837Z,42.27
2023-01-04T09:58:25.691Z,42.73
2023-01-04T10:01:04.203Z,45.80
2023-01-04T10:03:37.001Z,39.90
2023-01-04T10:06:09.291Z,46.03
2023-01-04T10:08:39.883Z,51.93
2023-01-04T10:11:44.520Z,45.17
2023-01-04T10:14:47.508Z,47.17
2023-01-04T10:18:33.948Z,41.10
2023-01-04T10:21:25.302Z,42.57
2023-01-04T10:24:03.800Z,40.37
2023-01-04T10:26:41.218Z,38.43
2023-01-04T10:29:43.789Z,40.63
2023-01-04T10:32:23.696Z,44.10
2023-01-04T10:34:54.120Z,42.70
2023-01-04T10:37:27.855Z,42.10
2023-01-04T10:39:59.115Z,35.47
2023-01-04T10:42:35.189Z,33.60
2023-01-04T10:45:16.602Z,42.73
2023-01-04T10:47:58.727Z,33.03
2023-01-04T10:50:39.434Z,34.37
2023-01-04T10:53:17.162Z,34.73
2023-01-04T10:56:24.254Z,32.93
2023-01-04T10:58:53.596Z,37.00
2023-01-04T11:01:30.899Z,32.90
2023-01-04T11:04:07.088Z,40.60
2023-01-04T11:06:41.990Z,33.93
2023-01-04T11:09:24.779Z,37.13
2023-01-04T11:11:58.654Z,35.97
2023-01-04T11:14:33.397Z,43.30
2023-01-04T11:17:16.689Z,35.70
2023-01-04T11:19:45.533Z,42.13
2023-01-04T11:22:21.484Z,40.87
2023-01-04T11:27:53.217Z,38.20
2023-01-04T11:30:26.769Z,33.43
2023-01-04T11:33:03.611Z,39.03
2023-01-04T11:35:43.209Z,41.00
2023-01-04T11:38:18.892Z,39.80
2023-01-04T11:41:02.083Z,41.07
2023-01-04T11:43:33.658Z,37.23
2023-01-04T11:46:06.577Z,35.17
2023-01-04T11:48:42.302Z,40.73
2023-01-04T11:51:27.688Z,40.20
2023-01-04T11:54:01.147Z,36.73
2023-01-04T11:56:31.784Z,34.80
2023-01-04T11:59:15.476Z,35.50
2023-01-04T12:01:51.665Z,33.30
2023-01-04T12:04:25.088Z,39.83
2023-01-04T12:06:59.219Z,41.37
2023-01-04T12:09:30.441Z,33.77
2023-01-04T12:12:01.528Z,36.47
2023-01-04T12:14:37.112Z,35.37
2023-01-04T12:17:15.049Z,29.00
2023-01-04T12:19:45.513Z,24.80
2023-01-04T12:22:26.005Z,29.00
2023-01-04T12:25:00.649Z,27.27
2023-01-04T12:27:29.923Z,28.30
2023-01-04T12:30:02.848Z,26.77
2023-01-04T12:32:48.753Z,24.60
2023-01-04T12:36:06.877Z,25.50
2023-01-04T12:39:30.241Z,26.33
2023-01-04T12:42:27.095Z,27.40
2023-01-04T12:45:16.552Z,29.73
2023-01-04T12:48:05.547Z,27.57
2023-01-04T12:51:32.822Z,26.07
2023-01-04T12:54:06.498Z,27.13
2023-01-04T12:57:36.788Z,49.70
2023-01-04T13:00:08.652Z,24.43
2023-01-04T13:02:44.158Z,26.73
2023-01-04T13:08:26.619Z,23.70
2023-01-04T13:10:58.299Z,29.17
2023-01-04T13:13:37.391Z,25.80
2023-01-04T13:16:21.469Z,23.73
2023-01-04T13:18:53.193Z,22.33
2023-01-04T13:21:29.709Z,25.30
2023-01-04T13:24:01.598Z,21.90
2023-01-04T13:26:42.939Z,21.40
2023-01-04T13:29:19.849Z,21.03
2023-01-04T13:31:58.632Z,22.53
2023-01-04T13:34:33.053Z,26.60
2023-01-04T13:37:09.738Z,20.43
2023-01-04T13:39:40.839Z,23.10
2023-01-04T13:42:26.202Z,23.00
2023-01-04T13:45:26.977Z,21.43
2023-01-04T13:47:59.803Z,22.10
2023-01-04T13:50:37.540Z,24.03
2023-01-04T13:53:08.891Z,21.10
2023-01-04T13:55:39.251Z,25.50
2023-01-04T13:58:19.071Z,22.33
2023-01-04T14:00:53.142Z,21.80
2023-01-04T14:03:35.092Z,19.37
2023-01-04T14:06:18.187Z,18.37
2023-01-04T14:08:55.344Z,20.33
2023-01-04T14:11:46.352Z,20.40
2023-01-04T14:14:38.469Z,14.50
2023-01-04T14:17:20.583Z,15.97
2023-01-04T14:19:53.683Z,18.53
2023-01-04T14:22:42.537Z,17.47
2023-01-04T14:25:56.300Z,15.90
2023-01-04T14:28:47.059Z,16.00
2023-01-04T14:31:45.884Z,19.97
2023-01-04T14:34:16.060Z,20.27
2023-01-04T14:36:45.215Z,17.63
2023-01-04T14:39:35.519Z,17.53
2023-01-04T14:42:05.208Z,18.60
2023-01-04T14:44:36.054Z,19.73
2023-01-04T14:47:07.384Z,14.83
2023-01-04T14:49:36.183Z,12.93
2023-01-04T14:52:11.594Z,13.43
2023-01-04T14:54:40.264Z,13.53
2023-01-04T14:57:11.154Z,11.97
2023-01-04T14:59:39.652Z,8.83
2023-01-04T15:02:11.445Z,14.70
2023-01-04T15:04:40.383Z,8.27
2023-01-04T15:07:32.629Z,9.40
2023-01-04T15:10:01.424Z,9.33
2023-01-04T15:12:29.977Z,16.43
2023-01-04T15:14:58.478Z,8.63
2023-01-04T15:17:31.982Z,8.40
2023-01-04T15:20:00.580Z,9.57
2023-01-04T15:22:29.266Z,15.20
2023-01-04T15:24:57.763Z,16.60
2023-01-04T15:27:30.918Z,9.20
2023-01-04T15:30:01.482Z,11.73
2023-01-04T15:32:33.939Z,9.60
2023-01-04T15:35:02.736Z,9.80
2023-01-04T15:37:31.438Z,15.80
2023-01-04T15:40:02.752Z,10.70
2023-01-04T15:42:49.917Z,11.30
2023-01-04T15:45:18.778Z,11.10
2023-01-04T15:47:48.618Z,10.60
2023-01-04T15:50:17.455Z,8.83
2023-01-04T15:52:46.038Z,9.87
2023-01-04T15:55:15.478Z,10.40
2023-01-04T15:57:44.494Z,11.00
2023-01-04T16:00:15.032Z,8.70
2023-01-04T16:02:43.766Z,7.97
2023-01-04T16:05:15.776Z,10.00
2023-01-04T16:07:44.781Z,10.80
2023-01-04T16:10:13.494Z,12.17
2023-01-04T16:12:48.688Z,7.83
2023-01-04T16:15:23.160Z,7.90
2023-01-04T16:17:52.353Z,9.00
2023-01-04T16:20:22.624Z,9.00
2023-01-04T16:22:51.199Z,7.80
2023-01-04T16:25:19.979Z,7.57
2023-01-04T16:27:48.777Z,9.50
2023-01-04T16:30:17.676Z,8.83
2023-01-04T16:32:46.378Z,8.70
2023-01-04T16:35:15.069Z,14.27
2023-01-04T16:37:46.417Z,8.50
2023-01-04T16:40:15.041Z,8.07
2023-01-04T16:42:50.612Z,11.27
2023-01-04T16:45:20.241Z,9.90
2023-01-04T16:47:50.344Z,9.63
2023-01-04T16:50:19.092Z,9.70
2023-01-04T16:52:48.994Z,8.77
2023-01-04T16:55:23.624Z,10.33
2023-01-04T16:57:52.703Z,7.53
2023-01-04T17:00:21.477Z,7.83
2023-01-04T17:02:50.020Z,12.07
2023-01-04T17:05:18.942Z,9.27
2023-01-04T17:07:48.853Z,18.83
2023-01-04T17:10:17.521Z,9.37
2023-01-04T17:12:48.140Z,10.00
2023-01-04T17:18:07.565Z,8.17
2023-01-04T17:20:37.792Z,9.97
2023-01-04T17:23:08.330Z,9.10
2023-01-04T17:25:36.922Z,7.20
2023-01-04T17:28:05.754Z,9.13
2023-01-04T17:30:34.273Z,8.50
2023-01-04T17:33:02.858Z,7.83
2023-01-04T17:35:31.531Z,8.53
2023-01-04T17:38:00.058Z,8.07
2023-01-04T17:40:30.062Z,10.50
2023-01-04T17:42:59.929Z,15.00
2023-01-04T17:45:28.632Z,9.30
2023-01-04T17:47:57.362Z,8.43
2023-01-04T17:50:26.007Z,14.70
2023-01-04T17:52:54.595Z,8.17
2023-01-04T17:55:23.115Z,9.47
2023-01-04T17:57:53.022Z,13.63
2023-01-04T18:00:22.111Z,7.80
2023-01-04T18:02:50.662Z,7.30
2023-01-04T18:05:19.393Z,9.00
2023-01-04T18:07:47.930Z,9.10
2023-01-04T18:10:33.118Z,7.23
2023-01-04T18:13:06.449Z,7.43
2023-01-04T18:15:43.908Z,7.30
2023-01-04T18:18:17.523Z,8.13
2023-01-04T18:20:49.346Z,9.00
2023-01-04T18:23:25.411Z,6.47
2023-01-04T18:25:54.498Z,9.50
2023-01-04T18:28:24.541Z,7.40
2023-01-04T18:30:53.029Z,9.53
2023-01-04T18:33:21.715Z,8.73
2023-01-04T18:35:50.291Z,10.93
2023-01-04T18:38:18.795Z,12.00
2023-01-04T18:40:47.632Z,7.77
2023-01-04T18:43:16.217Z,8.23
2023-01-04T18:45:46.075Z,7.67
2023-01-04T18:48:14.675Z,9.03
2023-01-04T18:50:43.224Z,7.80
2023-01-04T18:53:11.734Z,7.50
2023-01-04T18:55:40.490Z,8.80
2023-01-04T18:58:09.050Z,14.70
2023-01-04T19:00:37.785Z,8.23
2023-01-04T19:03:10.897Z,7.83
2023-01-04T19:05:42.296Z,7.20
2023-01-04T19:08:11.349Z,8.90
2023-01-04T19:10:39.847Z,6.70
2023-01-04T19:13:08.383Z,6.87
2023-01-04T19:15:41.272Z,7.63
2023-01-04T19:18:13.940Z,8.60
2023-01-04T19:20:42.549Z,8.50
2023-01-04T19:23:11.016Z,8.03
2023-01-04T19:25:41.005Z,9.00
2023-01-04T19:28:12.081Z,6.23
2023-01-04T19:30:42.996Z,7.93
2023-01-04T19:33:13.475Z,7.33
2023-01-04T19:35:43.551Z,8.50
2023-01-04T19:38:13.084Z,7.53
2023-01-04T19:40:42.287Z,8.07
2023-01-04T19:43:10.862Z,6.97
2023-01-04T19:45:42.962Z,8.93
2023-01-04T19:48:12.937Z,8.30
2023-01-04T19:50:41.461Z,8.63
2023-01-04T19:53:10.297Z,8.47
2023-01-04T19:55:40.808Z,9.03
2023-01-04T19:58:09.742Z,10.60
2023-01-04T20:00:38.324Z,7.03
2023-01-04T20:03:06.950Z,9.93
2023-01-04T20:05:36.930Z,9.90
2023-01-04T20:08:06.891Z,12.73
2023-01-04T20:10:35.547Z,8.10
2023-01-04T20:13:04.142Z,9.10
2023-01-04T20:15:32.618Z,6.50
2023-01-04T20:18:01.209Z,9.03
2023-01-04T20:20:29.665Z,8.80
2023-01-04T20:22:59.564Z,8.77
2023-01-04T20:25:28.169Z,9.80
2023-01-04T20:27:56.719Z,9.43
2023-01-04T20:30:25.284Z,8.50
2023-01-04T20:32:53.813Z,7.70
2023-01-04T20:35:24.477Z,9.80
2023-01-04T20:37:54.574Z,7.87
2023-01-04T20:40:25.008Z,10.77
2023-01-04T20:43:11.414Z,7.00
2023-01-04T20:45:45.244Z,7.17
2023-01-04T20:48:14.996Z,8.40
2023-01-04T20:50:44.044Z,7.30
2023-01-04T20:53:13.460Z,8.40
2023-01-04T20:55:44.964Z,9.33
2023-01-04T20:58:17.478Z,6.20
2023-01-04T21:00:47.662Z,7.37
2023-01-04T21:03:16.664Z,6.50
2023-01-04T21:05:46.537Z,7.50
2023-01-04T21:08:15.220Z,6.07
2023-01-04T21:10:45.490Z,6.70
2023-01-04T21:13:14.436Z,6.60
2023-01-04T21:15:43.057Z,7.40
2023-01-04T21:18:11.863Z,6.73
2023-01-04T21:20:42.000Z,6.70
2023-01-04T21:23:15.380Z,7.00
2023-01-04T21:25:45.645Z,7.37
2023-01-04T21:28:14.457Z,7.10
2023-01-04T21:30:45.342Z,6.80
2023-01-04T21:33:16.049Z,7.13
2023-01-04T21:35:44.845Z,6.47
2023-01-04T21:38:13.434Z,7.00
2023-01-04T21:40:44.349Z,7.20
2023-01-04T21:43:19.000Z,10.33
2023-01-04T21:45:47.576Z,6.70
2023-01-04T21:48:16.081Z,6.30
2023-01-04T21:50:44.654Z,6.67
2023-01-04T21:53:13.181Z,10.00
2023-01-04T21:55:41.745Z,6.77
2023-01-04T21:58:11.849Z,6.27
2023-01-04T22:00:40.578Z,6.57
2023-01-04T22:03:09.132Z,6.20
2023-01-04T22:05:37.739Z,8.30
2023-01-04T22:08:06.809Z,6.60
2023-01-04T22:10:35.454Z,5.90
2023-01-04T22:13:04.235Z,6.00
2023-01-04T22:15:34.342Z,6.83
2023-01-04T22:18:02.859Z,6.70
2023-01-04T22:20:31.633Z,6.50
2023-01-04T22:23:00.331Z,5.90
2023-01-04T22:25:29.026Z,6.70
2023-01-04T22:27:57.615Z,8.20
2023-01-04T22:30:26.084Z,6.10
2023-01-04T22:32:56.524Z,6.57
2023-01-04T22:35:25.240Z,6.00
2023-01-04T22:37:53.699Z,5.50
2023-01-04T22:40:22.180Z,9.80
2023-01-04T22:42:50.695Z,6.67
2023-01-04T22:45:19.417Z,5.90
2023-01-04T22:47:48.013Z,5.90
2023-01-04T22:50:18.203Z,5.87
2023-01-04T22:52:50.958Z,5.77
2023-01-04T22:55:20.055Z,11.30
2023-01-04T22:57:48.656Z,6.00
2023-01-04T23:00:18.022Z,7.07
2023-01-04T23:02:46.680Z,6.23
2023-01-04T23:05:15.232Z,6.33
2023-01-04T23:07:45.128Z,6.53
2023-01-04T23:10:13.710Z,6.10
2023-01-04T23:12:42.334Z,6.60
2023-01-04T23:15:12.446Z,5.77
2023-01-04T23:17:41.023Z,5.80
2023-01-04T23:20:13.751Z,5.90
2023-01-04T23:22:45.893Z,6.47
2023-01-04T23:25:14.534Z,5.93
2023-01-04T23:27:43.078Z,5.87
2023-01-04T23:30:14.019Z,7.20
2023-01-04T23:32:43.021Z,6.20
2023-01-04T23:35:12.100Z,7.33
2023-01-04T23:37:40.587Z,6.87
2023-01-04T23:40:12.248Z,6.90
2023-01-04T23:42:40.781Z,5.97
2023-01-04T23:45:10.569Z,6.40
2023-01-04T23:47:39.261Z,6.60
2023-01-04T23:50:09.542Z,5.77
2023-01-04T23:52:38.122Z,6.00
2023-01-04T23:55:07.773Z,6.20
2023-01-04T23:57:37.852Z,6.00
